sensor_id;sensor_type;location;lat;lon;timestamp;temperature;humidity
67603;DHT22;54417;47.454;18.918;2023-02-28T00:01:52;-0.69;71.99
67603;DHT22;54417;47.454;18.918;2023-02-28T00:07:16;-0.59;71.81
67603;DHT22;54417;47.454;18.918;2023-02-28T00:12:40;-0.66;71.17
67603;DHT22;54417;47.454;18.918;2023-02-28T00:18:06;-0.48;71.09
67603;DHT22;54417;47.454;18.918;2023-02-28T00:23:30;-0.29;71.14
67603;DHT22;54417;47.454;18.918;2023-02-28T00:28:53;-0.37;71.20
67603;DHT22;54417;47.454;18.918;2023-02-28T00:34:19;-0.22;71.82
67603;DHT22;54417;47.454;18.918;2023-02-28T00:39:43;-0.13;71.08
67603;DHT22;54417;47.454;18.918;2023-02-28T00:45:07;-0.32;70.01
67603;DHT22;54417;47.454;18.918;2023-02-28T00:50:34;-0.10;71.39
67603;DHT22;54417;47.454;18.918;2023-02-28T00:55:58;-0.03;70.71
67603;DHT22;54417;47.454;18.918;2023-02-28T01:01:22;-0.01;71.14
67603;DHT22;54417;47.454;18.918;2023-02-28T01:06:47;-0.07;70.95
67603;DHT22;54417;47.454;18.918;2023-02-28T01:12:11;0.04;71.46
67603;DHT22;54417;47.454;18.918;2023-02-28T01:17:36;-0.14;71.05
67603;DHT22;54417;47.454;18.918;2023-02-28T01:23:01;-0.25;71.15
67603;DHT22;54417;47.454;18.918;2023-02-28T01:28:25;-0.31;71.16
67603;DHT22;54417;47.454;18.918;2023-02-28T01:33:49;-0.22;71.54
67603;DHT22;54417;47.454;18.918;2023-02-28T01:39:14;-0.17;71.10
67603;DHT22;54417;47.454;18.918;2023-02-28T01:45:01;-0.20;71.67
67603;DHT22;54417;47.454;18.918;2023-02-28T01:50:29;-0.18;71.53
67603;DHT22;54417;47.454;18.918;2023-02-28T01:55:55;-0.03;71.71
67603;DHT22;54417;47.454;18.918;2023-02-28T02:01:19;-0.04;70.81
67603;DHT22;54417;47.454;18.918;2023-02-28T02:06:46;0.06;72.48
67603;DHT22;54417;47.454;18.918;2023-02-28T02:12:23;0.06;70.70
67603;DHT22;54417;47.454;18.918;2023-02-28T02:17:53;0.06;70.32
67603;DHT22;54417;47.454;18.918;2023-02-28T02:35:35;0.09;71.39
67603;DHT22;54417;47.454;18.918;2023-02-28T02:41:08;0.20;71.22
67603;DHT22;54417;47.454;18.918;2023-02-28T02:46:39;0.32;70.86
67603;DHT22;54417;47.454;18.918;2023-02-28T02:52:08;0.40;71.80
67603;DHT22;54417;47.454;18.918;2023-02-28T02:57:36;0.37;71.21
67603;DHT22;54417;47.454;18.918;2023-02-28T03:03:01;0.37;72.12
67603;DHT22;54417;47.454;18.918;2023-02-28T03:08:29;0.38;72.10
67603;DHT22;54417;47.454;18.918;2023-02-28T03:19:56;0.38;72.36
67603;DHT22;54417;47.454;18.918;2023-02-28T03:25:34;0.44;66.07
67603;DHT22;54417;47.454;18.918;2023-02-28T03:31:04;0.48;66.75
67603;DHT22;54417;47.454;18.918;2023-02-28T03:36:35;0.61;64.78
67603;DHT22;54417;47.454;18.918;2023-02-28T03:42:11;0.58;66.63
67603;DHT22;54417;47.454;18.918;2023-02-28T03:47:39;0.66;67.39
67603;DHT22;54417;47.454;18.918;2023-02-28T03:53:11;0.73;68.51
67603;DHT22;54417;47.454;18.918;2023-02-28T03:58:40;0.79;69.33
67603;DHT22;54417;47.454;18.918;2023-02-28T04:04:05;0.80;67.33
67603;DHT22;54417;47.454;18.918;2023-02-28T04:09:29;0.95;66.58
67603;DHT22;54417;47.454;18.918;2023-02-28T04:14:54;0.96;64.74
67603;DHT22;54417;47.454;18.918;2023-02-28T04:20:18;0.92;64.07
67603;DHT22;54417;47.454;18.918;2023-02-28T04:25:42;0.99;65.08
67603;DHT22;54417;47.454;18.918;2023-02-28T04:31:08;0.97;64.09
67603;DHT22;54417;47.454;18.918;2023-02-28T04:36:33;0.93;64.06
67603;DHT22;54417;47.454;18.918;2023-02-28T04:41:56;0.86;64.69
67603;DHT22;54417;47.454;18.918;2023-02-28T04:47:22;0.89;64.32
67603;DHT22;54417;47.454;18.918;2023-02-28T04:52:45;0.83;62.33
67603;DHT22;54417;47.454;18.918;2023-02-28T04:58:09;0.90;62.46
67603;DHT22;54417;47.454;18.918;2023-02-28T05:03:34;0.89;62.83
67603;DHT22;54417;47.454;18.918;2023-02-28T05:08:58;0.83;62.86
67603;DHT22;54417;47.454;18.918;2023-02-28T05:14:22;0.83;62.42
67603;DHT22;54417;47.454;18.918;2023-02-28T05:19:47;0.89;62.54
67603;DHT22;54417;47.454;18.918;2023-02-28T05:25:16;0.82;63.21
67603;DHT22;54417;47.454;18.918;2023-02-28T05:30:40;0.79;63.18
67603;DHT22;54417;47.454;18.918;2023-02-28T05:36:06;0.83;63.94
67603;DHT22;54417;47.454;18.918;2023-02-28T05:41:30;0.83;63.86
67603;DHT22;54417;47.454;18.918;2023-02-28T05:46:54;0.89;65.19
67603;DHT22;54417;47.454;18.918;2023-02-28T05:52:19;0.79;64.44
67603;DHT22;54417;47.454;18.918;2023-02-28T05:57:43;0.68;63.84
67603;DHT22;54417;47.454;18.918;2023-02-28T06:03:07;0.68;65.00
67603;DHT22;54417;47.454;18.918;2023-02-28T06:08:32;0.69;64.17
67603;DHT22;54417;47.454;18.918;2023-02-28T06:13:57;0.69;64.83
67603;DHT22;54417;47.454;18.918;2023-02-28T06:19:22;0.79;64.55
67603;DHT22;54417;47.454;18.918;2023-02-28T06:24:49;0.79;63.62
67603;DHT22;54417;47.454;18.918;2023-02-28T06:30:13;0.89;63.66
67603;DHT22;54417;47.454;18.918;2023-02-28T06:35:37;1.03;63.08
67603;DHT22;54417;47.454;18.918;2023-02-28T06:41:03;1.17;62.53
67603;DHT22;54417;47.454;18.918;2023-02-28T06:46:27;1.17;62.39
67603;DHT22;54417;47.454;18.918;2023-02-28T06:51:52;1.24;62.28
67603;DHT22;54417;47.454;18.918;2023-02-28T06:57:17;1.36;62.54
67603;DHT22;54417;47.454;18.918;2023-02-28T07:02:41;1.38;62.22
67603;DHT22;54417;47.454;18.918;2023-02-28T07:08:05;1.38;62.29
67603;DHT22;54417;47.454;18.918;2023-02-28T07:13:31;1.51;60.86
67603;DHT22;54417;47.454;18.918;2023-02-28T07:18:55;1.75;60.06
67603;DHT22;54417;47.454;18.918;2023-02-28T07:24:19;2.03;59.84
67603;DHT22;54417;47.454;18.918;2023-02-28T07:29:44;2.51;56.85
67603;DHT22;54417;47.454;18.918;2023-02-28T07:35:08;2.74;55.30
67603;DHT22;54417;47.454;18.918;2023-02-28T07:40:32;3.04;56.36
67603;DHT22;54417;47.454;18.918;2023-02-28T07:46:01;3.09;54.46
67603;DHT22;54417;47.454;18.918;2023-02-28T07:51:25;3.36;53.57
67603;DHT22;54417;47.454;18.918;2023-02-28T07:56:49;3.73;52.88
67603;DHT22;54417;47.454;18.918;2023-02-28T08:02:15;3.90;53.36
67603;DHT22;54417;47.454;18.918;2023-02-28T08:07:39;4.42;52.76
67603;DHT22;54417;47.454;18.918;2023-02-28T08:13:03;4.54;51.78
67603;DHT22;54417;47.454;18.918;2023-02-28T08:18:28;4.57;53.03
67603;DHT22;54417;47.454;18.918;2023-02-28T08:23:52;4.49;53.01
67603;DHT22;54417;47.454;18.918;2023-02-28T08:29:16;4.38;53.34
67603;DHT22;54417;47.454;18.918;2023-02-28T08:34:41;4.59;54.82
67603;DHT22;54417;47.454;18.918;2023-02-28T08:40:08;4.52;53.24
67603;DHT22;54417;47.454;18.918;2023-02-28T08:45:32;4.36;54.91
67603;DHT22;54417;47.454;18.918;2023-02-28T08:50:57;4.09;54.80
67603;DHT22;54417;47.454;18.918;2023-02-28T08:56:29;4.39;54.21
67603;DHT22;54417;47.454;18.918;2023-02-28T09:01:53;4.52;55.26
67603;DHT22;54417;47.454;18.918;2023-02-28T09:07:18;4.73;53.98
67603;DHT22;54417;47.454;18.918;2023-02-28T09:12:42;4.95;53.56
67603;DHT22;54417;47.454;18.918;2023-02-28T09:18:08;5.09;52.73
67603;DHT22;54417;47.454;18.918;2023-02-28T09:23:33;5.15;52.92
67603;DHT22;54417;47.454;18.918;2023-02-28T09:28:57;4.98;51.54
67603;DHT22;54417;47.454;18.918;2023-02-28T09:34:21;5.21;53.76
67603;DHT22;54417;47.454;18.918;2023-02-28T09:39:47;5.60;52.48
67603;DHT22;54417;47.454;18.918;2023-02-28T09:45:19;5.97;51.85
67603;DHT22;54417;47.454;18.918;2023-02-28T09:50:47;6.24;50.08
67603;DHT22;54417;47.454;18.918;2023-02-28T09:56:19;6.59;50.00
67603;DHT22;54417;47.454;18.918;2023-02-28T10:01:52;6.42;49.34
67603;DHT22;54417;47.454;18.918;2023-02-28T10:07:36;6.11;49.29
67603;DHT22;54417;47.454;18.918;2023-02-28T10:13:05;6.55;50.07
67603;DHT22;54417;47.454;18.918;2023-02-28T10:18:34;6.25;50.37
67603;DHT22;54417;47.454;18.918;2023-02-28T10:24:05;6.76;50.27
67603;DHT22;54417;47.454;18.918;2023-02-28T10:29:35;6.96;49.75
67603;DHT22;54417;47.454;18.918;2023-02-28T10:35:01;6.90;49.32
67603;DHT22;54417;47.454;18.918;2023-02-28T10:40:33;6.65;50.44
67603;DHT22;54417;47.454;18.918;2023-02-28T10:46:02;6.86;50.39
67603;DHT22;54417;47.454;18.918;2023-02-28T10:51:34;6.96;48.82
67603;DHT22;54417;47.454;18.918;2023-02-28T10:57:15;6.75;49.69
67603;DHT22;54417;47.454;18.918;2023-02-28T11:02:41;6.25;50.22
67603;DHT22;54417;47.454;18.918;2023-02-28T11:08:12;6.53;50.68
67603;DHT22;54417;47.454;18.918;2023-02-28T11:13:37;7.07;49.78
67603;DHT22;54417;47.454;18.918;2023-02-28T11:19:03;7.40;50.09
67603;DHT22;54417;47.454;18.918;2023-02-28T11:24:31;7.90;49.23
67603;DHT22;54417;47.454;18.918;2023-02-28T11:29:58;7.71;48.04
67603;DHT22;54417;47.454;18.918;2023-02-28T11:35:28;7.45;48.45
67603;DHT22;54417;47.454;18.918;2023-02-28T11:41:10;7.50;49.24
67603;DHT22;54417;47.454;18.918;2023-02-28T11:46:41;7.96;48.73
67603;DHT22;54417;47.454;18.918;2023-02-28T11:52:20;7.41;48.84
67603;DHT22;54417;47.454;18.918;2023-02-28T11:57:56;7.87;49.60
67603;DHT22;54417;47.454;18.918;2023-02-28T12:03:27;7.94;48.47
67603;DHT22;54417;47.454;18.918;2023-02-28T12:09:03;7.62;48.64
67603;DHT22;54417;47.454;18.918;2023-02-28T12:15:03;7.23;49.56
67603;DHT22;54417;47.454;18.918;2023-02-28T12:20:34;6.90;50.29
67603;DHT22;54417;47.454;18.918;2023-02-28T12:26:07;6.87;51.72
67603;DHT22;54417;47.454;18.918;2023-02-28T12:31:39;6.93;50.63
67603;DHT22;54417;47.454;18.918;2023-02-28T12:37:07;6.69;50.60
67603;DHT22;54417;47.454;18.918;2023-02-28T12:42:36;6.62;51.14
67603;DHT22;54417;47.454;18.918;2023-02-28T12:48:04;6.72;51.22
67603;DHT22;54417;47.454;18.918;2023-02-28T12:53:38;6.64;51.85
67603;DHT22;54417;47.454;18.918;2023-02-28T12:59:14;6.57;51.73
67603;DHT22;54417;47.454;18.918;2023-02-28T13:04:47;6.79;51.95
67603;DHT22;54417;47.454;18.918;2023-02-28T13:10:17;6.76;51.15
67603;DHT22;54417;47.454;18.918;2023-02-28T13:15:57;7.03;51.74
67603;DHT22;54417;47.454;18.918;2023-02-28T13:21:24;7.11;50.24
67603;DHT22;54417;47.454;18.918;2023-02-28T13:27:22;7.32;49.47
67603;DHT22;54417;47.454;18.918;2023-02-28T13:33:19;7.81;49.85
67603;DHT22;54417;47.454;18.918;2023-02-28T13:38:46;7.76;48.23
67603;DHT22;54417;47.454;18.918;2023-02-28T13:44:12;7.73;49.61
67603;DHT22;54417;47.454;18.918;2023-02-28T13:49:37;7.50;49.99
67603;DHT22;54417;47.454;18.918;2023-02-28T13:55:25;6.92;51.18
67603;DHT22;54417;47.454;18.918;2023-02-28T14:01:06;6.73;52.42
67603;DHT22;54417;47.454;18.918;2023-02-28T14:06:32;6.80;52.24
67603;DHT22;54417;47.454;18.918;2023-02-28T14:11:57;7.15;52.00
67603;DHT22;54417;47.454;18.918;2023-02-28T14:17:41;7.38;52.15
67603;DHT22;54417;47.454;18.918;2023-02-28T14:23:12;7.30;51.68
67603;DHT22;54417;47.454;18.918;2023-02-28T14:28:49;7.23;51.72
67603;DHT22;54417;47.454;18.918;2023-02-28T14:34:27;7.04;52.00
67603;DHT22;54417;47.454;18.918;2023-02-28T14:39:56;7.25;52.51
67603;DHT22;54417;47.454;18.918;2023-02-28T14:45:22;7.44;52.23
67603;DHT22;54417;47.454;18.918;2023-02-28T14:50:49;7.36;51.67
67603;DHT22;54417;47.454;18.918;2023-02-28T14:56:21;7.56;52.26
67603;DHT22;54417;47.454;18.918;2023-02-28T15:01:45;7.30;51.62
67603;DHT22;54417;47.454;18.918;2023-02-28T15:07:11;7.27;52.49
67603;DHT22;54417;47.454;18.918;2023-02-28T15:12:39;7.08;52.60
67603;DHT22;54417;47.454;18.918;2023-02-28T15:18:04;6.86;52.44
67603;DHT22;54417;47.454;18.918;2023-02-28T15:23:29;6.56;54.07
67603;DHT22;54417;47.454;18.918;2023-02-28T15:28:59;6.64;54.01
67603;DHT22;54417;47.454;18.918;2023-02-28T15:34:28;6.46;54.36
67603;DHT22;54417;47.454;18.918;2023-02-28T15:40:11;6.27;54.83
67603;DHT22;54417;47.454;18.918;2023-02-28T15:45:40;6.44;55.13
67603;DHT22;54417;47.454;18.918;2023-02-28T15:51:07;6.29;55.27
67603;DHT22;54417;47.454;18.918;2023-02-28T15:56:33;5.94;55.83
67603;DHT22;54417;47.454;18.918;2023-02-28T16:02:13;5.87;56.07
67603;DHT22;54417;47.454;18.918;2023-02-28T16:07:39;5.71;56.96
67603;DHT22;54417;47.454;18.918;2023-02-28T16:13:03;5.71;57.69
67603;DHT22;54417;47.454;18.918;2023-02-28T16:18:28;5.70;58.89
67603;DHT22;54417;47.454;18.918;2023-02-28T16:23:52;5.62;59.37
67603;DHT22;54417;47.454;18.918;2023-02-28T16:29:20;5.52;59.91
67603;DHT22;54417;47.454;18.918;2023-02-28T16:34:45;5.36;60.98
67603;DHT22;54417;47.454;18.918;2023-02-28T16:40:14;5.27;60.72
67603;DHT22;54417;47.454;18.918;2023-02-28T16:45:38;5.12;61.22
67603;DHT22;54417;47.454;18.918;2023-02-28T16:51:04;5.15;61.52
67603;DHT22;54417;47.454;18.918;2023-02-28T16:56:28;5.18;61.21
67603;DHT22;54417;47.454;18.918;2023-02-28T17:01:52;5.07;61.55
67603;DHT22;54417;47.454;18.918;2023-02-28T17:07:17;5.05;61.68
67603;DHT22;54417;47.454;18.918;2023-02-28T17:12:41;5.12;62.11
67603;DHT22;54417;47.454;18.918;2023-02-28T17:18:05;5.14;62.66
67603;DHT22;54417;47.454;18.918;2023-02-28T17:23:32;5.12;62.51
67603;DHT22;54417;47.454;18.918;2023-02-28T17:28:57;5.24;62.67
67603;DHT22;54417;47.454;18.918;2023-02-28T17:34:21;5.24;63.07
67603;DHT22;54417;47.454;18.918;2023-02-28T17:39:46;5.18;63.43
67603;DHT22;54417;47.454;18.918;2023-02-28T17:45:10;5.19;63.76
67603;DHT22;54417;47.454;18.918;2023-02-28T17:50:34;5.17;64.02
67603;DHT22;54417;47.454;18.918;2023-02-28T17:55:59;5.07;65.35
67603;DHT22;54417;47.454;18.918;2023-02-28T18:01:24;5.12;64.77
67603;DHT22;54417;47.454;18.918;2023-02-28T18:06:48;5.12;65.30
67603;DHT22;54417;47.454;18.918;2023-02-28T18:12:15;5.08;65.30
67603;DHT22;54417;47.454;18.918;2023-02-28T18:17:38;5.07;65.48
67603;DHT22;54417;47.454;18.918;2023-02-28T18:23:02;5.05;65.48
67603;DHT22;54417;47.454;18.918;2023-02-28T18:28:27;4.94;66.35
67603;DHT22;54417;47.454;18.918;2023-02-28T18:33:52;5.04;66.23
67603;DHT22;54417;47.454;18.918;2023-02-28T18:39:16;4.97;66.40
67603;DHT22;54417;47.454;18.918;2023-02-28T18:44:41;4.88;66.49
67603;DHT22;54417;47.454;18.918;2023-02-28T18:50:06;4.80;66.84
67603;DHT22;54417;47.454;18.918;2023-02-28T18:55:31;4.85;67.52
67603;DHT22;54417;47.454;18.918;2023-02-28T19:00:56;4.76;67.21
67603;DHT22;54417;47.454;18.918;2023-02-28T19:06:20;4.81;67.54
67603;DHT22;54417;47.454;18.918;2023-02-28T19:11:44;4.85;67.40
67603;DHT22;54417;47.454;18.918;2023-02-28T19:17:09;4.76;67.76
67603;DHT22;54417;47.454;18.918;2023-02-28T19:22:35;4.73;67.99
67603;DHT22;54417;47.454;18.918;2023-02-28T19:27:59;4.76;68.06
67603;DHT22;54417;47.454;18.918;2023-02-28T19:33:24;4.70;68.70
67603;DHT22;54417;47.454;18.918;2023-02-28T19:38:49;4.73;68.62
67603;DHT22;54417;47.454;18.918;2023-02-28T19:44:12;4.73;68.75
67603;DHT22;54417;47.454;18.918;2023-02-28T19:49:38;4.71;67.88
67603;DHT22;54417;47.454;18.918;2023-02-28T19:55:01;4.76;68.00
67603;DHT22;54417;47.454;18.918;2023-02-28T20:00:25;4.67;67.33
67603;DHT22;54417;47.454;18.918;2023-02-28T20:05:59;4.49;69.03
67603;DHT22;54417;47.454;18.918;2023-02-28T20:11:23;4.45;68.84
67603;DHT22;54417;47.454;18.918;2023-02-28T20:16:47;4.52;69.86
67603;DHT22;54417;47.454;18.918;2023-02-28T20:22:13;4.53;69.63
67603;DHT22;54417;47.454;18.918;2023-02-28T20:27:37;4.43;70.46
67603;DHT22;54417;47.454;18.918;2023-02-28T20:33:00;4.33;70.41
67603;DHT22;54417;47.454;18.918;2023-02-28T20:38:26;4.40;70.89
67603;DHT22;54417;47.454;18.918;2023-02-28T20:43:53;4.31;71.58
67603;DHT22;54417;47.454;18.918;2023-02-28T20:49:19;4.18;71.48
67603;DHT22;54417;47.454;18.918;2023-02-28T20:54:45;4.25;70.95
67603;DHT22;54417;47.454;18.918;2023-02-28T21:00:10;4.26;70.92
67603;DHT22;54417;47.454;18.918;2023-02-28T21:05:37;4.26;71.48
67603;DHT22;54417;47.454;18.918;2023-02-28T21:11:05;4.23;71.24
67603;DHT22;54417;47.454;18.918;2023-02-28T21:16:30;4.26;70.74
67603;DHT22;54417;47.454;18.918;2023-02-28T21:21:54;4.32;71.61
67603;DHT22;54417;47.454;18.918;2023-02-28T21:27:19;4.39;71.78
67603;DHT22;54417;47.454;18.918;2023-02-28T21:32:43;4.35;72.27
67603;DHT22;54417;47.454;18.918;2023-02-28T21:38:07;4.36;72.12
67603;DHT22;54417;47.454;18.918;2023-02-28T21:43:32;4.40;72.07
67603;DHT22;54417;47.454;18.918;2023-02-28T21:48:57;4.39;72.61
67603;DHT22;54417;47.454;18.918;2023-02-28T21:54:20;4.26;72.39
67603;DHT22;54417;47.454;18.918;2023-02-28T21:59:46;4.31;72.43
67603;DHT22;54417;47.454;18.918;2023-02-28T22:05:09;4.12;72.91
67603;DHT22;54417;47.454;18.918;2023-02-28T22:10:33;4.05;72.27
67603;DHT22;54417;47.454;18.918;2023-02-28T22:16:02;4.06;72.77
67603;DHT22;54417;47.454;18.918;2023-02-28T22:21:26;4.09;72.12
67603;DHT22;54417;47.454;18.918;2023-02-28T22:26:50;4.22;73.35
67603;DHT22;54417;47.454;18.918;2023-02-28T22:32:15;4.26;72.61
67603;DHT22;54417;47.454;18.918;2023-02-28T22:37:39;4.33;73.33
67603;DHT22;54417;47.454;18.918;2023-02-28T22:43:03;4.23;72.52
67603;DHT22;54417;47.454;18.918;2023-02-28T22:48:28;4.22;71.97
67603;DHT22;54417;47.454;18.918;2023-02-28T22:53:53;4.19;72.42
67603;DHT22;54417;47.454;18.918;2023-02-28T22:59:17;4.25;72.56
67603;DHT22;54417;47.454;18.918;2023-02-28T23:04:42;4.19;72.22
67603;DHT22;54417;47.454;18.918;2023-02-28T23:10:07;4.16;72.50
67603;DHT22;54417;47.454;18.918;2023-02-28T23:15:32;4.23;72.22
67603;DHT22;54417;47.454;18.918;2023-02-28T23:20:58;4.36;72.21
67603;DHT22;54417;47.454;18.918;2023-02-28T23:26:22;4.33;71.45
67603;DHT22;54417;47.454;18.918;2023-02-28T23:31:46;4.15;71.52
67603;DHT22;54417;47.454;18.918;2023-02-28T23:37:12;4.09;72.00
67603;DHT22;54417;47.454;18.918;2023-02-28T23:42:36;4.22;72.22
67603;DHT22;54417;47.454;18.918;2023-02-28T23:48:00;4.33;72.49
67603;DHT22;54417;47.454;18.918;2023-02-28T23:53:29;4.39;72.52
67603;DHT22;54417;47.454;18.918;2023-02-28T23:58:53;4.48;71.79
